Time;durP1;ratioP1;P1;durP2;ratioP2;P2;SDS_P1;SDS_P2;PMS_P1;PMS_P2;Temp;Humidity;BMP_temperature;BMP_pressure;BME280_temperature;BME280_humidity;BME280_pressure;Samples;Min_cycle;Max_cycle;Signal;HPM_P1;HPM_P2
2022/01/22 00:00:12;;;;;;;312.98;59.80;;;;;;;-0.85;57.74;100082.16;341641;28;1614;-70
2022/01/22 00:00:24;;;;;;;310.90;58.80;;;;;;;-0.88;57.88;100102.72;340875;28;1336;-70
2022/01/22 00:00:34;;;;;;;311.42;58.78;;;;;;;-0.90;58.18;100088.97;339559;29;1571;-70
2022/01/22 00:00:45;;;;;;;312.95;59.08;;;;;;;-0.89;57.85;100090.72;342285;28;1847;-70
2022/01/22 00:00:55;;;;;;;313.53;59.33;;;;;;;-0.90;58.01;100094.13;342105;28;1193;-70
2022/01/22 00:01:06;;;;;;;312.60;58.97;;;;;;;-0.90;58.46;100096.69;341375;28;1298;-70
2022/01/22 00:01:16;;;;;;;311.83;59.00;;;;;;;-0.91;58.08;100100.97;339667;29;1213;-70
2022/01/22 00:01:26;;;;;;;311.02;58.65;;;;;;;-0.89;58.07;100096.72;342223;28;2426;-71
2022/01/22 00:01:37;;;;;;;312.57;59.87;;;;;;;-0.88;58.00;100095.88;342213;28;1763;-71
2022/01/22 00:01:47;;;;;;;313.20;60.25;;;;;;;-0.88;58.17;100097.56;343606;28;2137;-71
2022/01/22 00:01:59;;;;;;;314.10;60.15;;;;;;;-0.89;58.46;100098.41;340956;28;1645;-71
2022/01/22 00:02:09;;;;;;;315.35;59.55;;;;;;;-0.87;58.44;100096.72;340988;29;1959;-71
2022/01/22 00:02:19;;;;;;;316.60;59.70;;;;;;;-0.84;58.34;100104.44;340747;28;1380;-71
2022/01/22 00:02:30;;;;;;;315.60;60.17;;;;;;;-0.83;58.44;100095.91;342032;28;1576;-71
2022/01/22 00:02:40;;;;;;;314.33;60.77;;;;;;;-0.85;58.79;100098.44;342336;28;806;-71
2022/01/22 00:02:51;;;;;;;313.88;61.17;;;;;;;-0.89;58.43;100098.41;339736;29;1793;-71
2022/01/22 00:03:02;;;;;;;315.47;60.90;;;;;;;-0.91;58.50;100093.25;340957;29;1356;-71
2022/01/22 00:03:12;;;;;;;315.95;61.17;;;;;;;-0.90;58.18;100094.13;341036;29;1193;-71
2022/01/22 00:03:23;;;;;;;314.27;60.08;;;;;;;-0.89;58.48;100098.41;341714;28;1327;-71
2022/01/22 00:03:33;;;;;;;312.40;60.10;;;;;;;-0.90;58.60;100099.25;340814;29;1376;-71
2022/01/22 00:03:43;;;;;;;312.42;60.33;;;;;;;-0.92;58.39;100090.66;342221;28;1914;-71
2022/01/22 00:03:54;;;;;;;312.63;60.30;;;;;;;-0.92;58.42;100090.66;344085;28;2059;-71
2022/01/22 00:04:04;;;;;;;313.40;60.27;;;;;;;-0.93;58.68;100096.66;342387;28;2134;-71
2022/01/22 00:04:15;;;;;;;311.27;59.00;;;;;;;-0.93;59.04;100100.09;341070;28;931;-71
2022/01/22 00:04:25;;;;;;;311.63;59.33;;;;;;;-0.91;58.55;100102.66;341670;28;2020;-71
2022/01/22 00:04:36;;;;;;;310.47;59.43;;;;;;;-0.89;58.76;100106.13;340889;28;1886;-71
2022/01/22 00:04:46;;;;;;;312.80;60.50;;;;;;;-0.90;58.65;100089.84;342582;28;913;-70
2022/01/22 00:04:56;;;;;;;312.43;59.97;;;;;;;-0.90;59.01;100088.97;341261;28;2112;-70
2022/01/22 00:05:08;;;;;;;312.40;59.63;;;;;;;-0.89;58.65;100093.28;342466;28;1780;-70
2022/01/22 00:05:19;;;;;;;310.40;58.65;;;;;;;-0.87;59.00;100096.72;342583;28;2007;-70
2022/01/22 00:05:30;;;;;;;310.90;58.97;;;;;;;-0.87;59.05;100089.03;339864;29;1064;-70
2022/01/22 00:05:40;;;;;;;309.90;58.17;;;;;;;-0.84;58.49;100094.16;341144;29;2068;-70
2022/01/22 00:05:51;;;;;;;310.03;58.60;;;;;;;-0.85;58.68;100088.16;342607;28;2206;-70
2022/01/22 00:06:01;;;;;;;310.52;58.65;;;;;;;-0.88;58.44;100089.88;344089;28;1040;-71
2022/01/22 00:06:11;;;;;;;310.67;58.67;;;;;;;-0.93;58.87;100094.06;343816;28;2354;-71
2022/01/22 00:06:22;;;;;;;312.52;59.58;;;;;;;-0.95;59.19;100086.34;341123;29;2100;-71
2022/01/22 00:06:32;;;;;;;314.43;59.33;;;;;;;-0.99;58.72;100083.72;341100;29;1694;-71
2022/01/22 00:06:43;;;;;;;316.00;59.40;;;;;;;-0.99;59.16;100083.72;342608;28;881;-71
2022/01/22 00:06:55;;;;;;;313.20;58.03;;;;;;;-0.99;59.57;100086.28;343816;28;1734;-71
2022/01/22 00:07:06;;;;;;;312.13;58.03;;;;;;;-0.96;59.05;100088.91;342436;28;2056;-71
2022/01/22 00:07:16;;;;;;;312.00;58.38;;;;;;;-0.95;58.63;100090.63;342465;28;1264;-71
2022/01/22 00:07:27;;;;;;;312.17;58.40;;;;;;;-0.95;58.67;100086.34;342326;28;2198;-71
2022/01/22 00:07:37;;;;;;;313.60;58.70;;;;;;;-0.97;58.91;100093.19;341785;28;1773;-71
2022/01/22 00:07:48;;;;;;;313.83;58.73;;;;;;;-0.96;58.82;100088.91;342787;28;1281;-71
2022/01/22 00:07:58;;;;;;;315.23;58.47;;;;;;;-0.99;59.05;100088.84;341316;29;834;-71
2022/01/22 00:08:09;;;;;;;314.07;58.23;;;;;;;-1.02;58.85;100087.13;341195;29;932;-71
2022/01/22 00:08:19;;;;;;;310.85;57.63;;;;;;;-1.01;59.32;100084.56;338872;29;1760;-71
2022/01/22 00:08:29;;;;;;;308.43;58.10;;;;;;;-1.03;59.36;100078.53;339782;29;893;-71
2022/01/22 00:08:40;;;;;;;308.50;58.55;;;;;;;-1.00;58.71;100082.84;342348;28;1843;-71
2022/01/22 00:08:50;;;;;;;311.27;59.57;;;;;;;-1.01;59.23;100089.69;342541;28;1283;-71
2022/01/22 00:09:01;;;;;;;313.15;60.08;;;;;;;-1.01;59.32;100083.69;342719;28;1222;-71
2022/01/22 00:09:11;;;;;;;313.93;60.50;;;;;;;-0.99;59.36;100094.00;342189;28;2002;-71
2022/01/22 00:09:25;;;;;;;313.67;60.15;;;;;;;-0.98;59.32;100081.19;342574;28;1097;-71
2022/01/22 00:09:38;;;;;;;311.02;58.38;;;;;;;-0.97;59.36;100092.31;342940;28;2004;-70
2022/01/22 00:09:58;;;;;;;310.40;57.97;;;;;;;-1.02;59.53;100085.41;342580;28;2048;-70
2022/01/22 00:10:14;;;;;;;311.38;58.15;;;;;;;-1.01;59.09;100076.84;342446;28;1716;-71
2022/01/22 00:10:25;;;;;;;311.75;58.50;;;;;;;-1.05;59.43;100085.38;341147;29;1957;-71
2022/01/22 00:10:37;;;;;;;311.85;58.35;;;;;;;-1.05;59.57;100080.22;341154;29;2226;-71
2022/01/22 00:10:50;;;;;;;311.63;58.45;;;;;;;-1.04;59.56;100091.38;343847;28;1427;-71
2022/01/22 00:11:00;;;;;;;311.52;58.70;;;;;;;-1.05;59.50;100085.38;338652;29;1324;-69
2022/01/22 00:11:11;;;;;;;311.98;58.47;;;;;;;-1.06;59.47;100078.50;342335;28;1920;-69
2022/01/22 00:11:21;;;;;;;311.13;58.20;;;;;;;-1.06;58.95;100081.06;340374;29;1946;-69
2022/01/22 00:11:37;;;;;;;311.33;58.05;;;;;;;-1.04;59.44;100076.81;341241;29;943;-69
2022/01/22 00:11:52;;;;;;;312.42;59.22;;;;;;;-1.04;59.11;100081.97;341261;29;1914;-69
2022/01/22 00:12:06;;;;;;;312.83;59.50;;;;;;;-1.04;59.33;100081.09;338525;29;2003;-70
2022/01/22 00:12:30;;;;;;;311.95;59.40;;;;;;;-1.08;58.59;100080.19;339974;29;1123;-70
2022/01/22 00:14:25;;;;;;;313.73;58.97;;;;;;;-1.07;58.70;100081.91;341840;28;1703;-70
2022/01/22 00:14:36;;;;;;;314.23;58.92;;;;;;;-1.06;58.81;100083.63;340281;28;1494;-70
2022/01/22 00:14:46;;;;;;;314.23;59.13;;;;;;;-1.05;58.84;100085.38;345231;28;1188;-70
2022/01/22 00:14:58;;;;;;;310.55;58.83;;;;;;;-1.05;59.02;100080.22;342522;28;1670;-70
2022/01/22 00:15:10;;;;;;;309.33;59.30;;;;;;;-1.04;59.08;100074.25;342493;28;1333;-70
2022/01/22 00:15:23;;;;;;;310.65;59.88;;;;;;;-1.05;58.90;100080.22;341140;28;1527;-70
2022/01/22 00:15:33;;;;;;;311.30;59.30;;;;;;;-1.04;58.94;100075.97;341447;28;1782;-71
2022/01/22 00:15:44;;;;;;;310.23;58.67;;;;;;;-1.07;58.48;100081.91;341347;29;933;-71
2022/01/22 00:15:55;;;;;;;310.77;58.80;;;;;;;-1.05;58.81;100082.81;338429;29;2259;-71
2022/01/22 00:16:05;;;;;;;311.50;59.35;;;;;;;-1.04;58.39;100079.38;342388;28;1461;-71
2022/01/22 00:16:17;;;;;;;312.73;59.47;;;;;;;-1.04;58.97;100084.53;340013;29;1134;-71
2022/01/22 00:16:27;;;;;;;312.75;59.10;;;;;;;-1.04;58.77;100087.09;343751;28;1822;-71
2022/01/22 00:16:37;;;;;;;311.37;58.67;;;;;;;-1.03;58.28;100083.69;339880;29;1373;-71
2022/01/22 00:16:48;;;;;;;310.40;58.50;;;;;;;-1.02;58.40;100080.28;341275;28;1378;-71
2022/01/22 00:16:59;;;;;;;311.23;59.30;;;;;;;-1.01;58.34;100086.28;342686;28;1798;-71
2022/01/22 00:17:09;;;;;;;312.70;59.83;;;;;;;-0.99;58.39;100078.59;341856;28;1951;-71
2022/01/22 00:17:20;;;;;;;311.80;59.70;;;;;;;-1.02;58.75;100085.41;344078;28;871;-71
2022/01/22 00:17:30;;;;;;;313.30;59.83;;;;;;;-1.04;58.80;100078.53;341417;28;1324;-71
2022/01/22 00:17:41;;;;;;;313.27;59.40;;;;;;;-1.04;58.54;100087.09;342756;28;1416;-71
2022/01/22 00:17:51;;;;;;;313.58;59.22;;;;;;;-1.04;59.18;100081.09;340520;29;1337;-71
2022/01/22 00:18:02;;;;;;;314.30;59.50;;;;;;;-1.06;59.04;100078.50;341771;28;1281;-71
2022/01/22 00:18:12;;;;;;;313.13;59.60;;;;;;;-1.06;58.54;100082.78;345281;28;2028;-71
2022/01/22 00:18:23;;;;;;;312.08;59.53;;;;;;;-1.06;58.80;100078.50;344105;28;1117;-70
2022/01/22 00:18:33;;;;;;;310.30;59.47;;;;;;;-1.07;58.29;100081.91;338270;29;1197;-70
2022/01/22 00:18:44;;;;;;;311.40;59.45;;;;;;;-1.07;58.15;100081.06;342393;29;1054;-71
2022/01/22 00:18:54;;;;;;;311.20;58.70;;;;;;;-1.08;58.74;100090.47;343158;28;1107;-71
2022/01/22 00:19:08;;;;;;;312.55;58.35;;;;;;;-1.08;58.36;100081.88;341041;29;965;-71
2022/01/22 00:19:18;;;;;;;311.90;58.42;;;;;;;-1.08;58.86;100080.19;342429;29;1469;-70
2022/01/22 00:19:29;;;;;;;313.73;59.30;;;;;;;-1.06;58.29;100080.22;340927;29;1286;-70
2022/01/22 00:19:39;;;;;;;313.98;60.22;;;;;;;-1.07;58.61;100087.03;344538;28;1313;-70
2022/01/22 00:19:49;;;;;;;313.93;60.37;;;;;;;-1.07;58.44;100081.91;343889;28;1114;-70
2022/01/22 00:20:00;;;;;;;312.45;59.55;;;;;;;-1.10;58.73;100079.31;343621;28;908;-70
2022/01/22 00:20:11;;;;;;;311.80;58.33;;;;;;;-1.10;58.57;100086.16;341126;29;1862;-70
2022/01/22 00:20:23;;;;;;;309.88;58.10;;;;;;;-1.08;58.63;100069.91;341004;29;987;-70
2022/01/22 00:20:33;;;;;;;308.80;58.38;;;;;;;-1.07;58.30;100086.19;340715;29;1221;-70
2022/01/22 00:20:44;;;;;;;309.98;58.67;;;;;;;-1.07;58.58;100081.91;342273;29;1059;-70
2022/01/22 00:20:54;;;;;;;310.57;59.03;;;;;;;-1.08;58.69;100085.31;340459;29;1839;-70
2022/01/22 00:21:04;;;;;;;310.13;58.90;;;;;;;-1.08;58.18;100089.59;340699;29;1793;-71
2022/01/22 00:21:15;;;;;;;309.77;59.27;;;;;;;-1.07;58.49;100086.19;341279;29;796;-71
2022/01/22 00:21:25;;;;;;;310.33;59.08;;;;;;;-1.08;58.39;100085.31;341441;29;1319;-70
2022/01/22 00:21:36;;;;;;;312.40;60.27;;;;;;;-1.09;57.88;100083.59;343978;28;1754;-70
2022/01/22 00:21:47;;;;;;;313.82;60.76;;;;;;;-1.09;58.03;100082.72;342243;29;1268;-70
2022/01/22 00:21:58;;;;;;;312.63;59.97;;;;;;;-1.09;58.13;100082.72;341950;28;1810;-70
2022/01/22 00:22:09;;;;;;;309.90;58.00;;;;;;;-1.09;58.00;100077.59;343853;28;1751;-71
2022/01/22 00:22:24;;;;;;;309.67;58.27;;;;;;;-1.09;58.12;100083.59;342992;28;1802;-70
2022/01/22 00:22:36;;;;;;;310.00;58.85;;;;;;;-1.07;58.54;100084.47;342736;28;1970;-69
2022/01/22 00:22:46;;;;;;;310.20;58.80;;;;;;;-1.05;58.09;100090.50;341232;28;1307;-69
2022/01/22 00:22:57;;;;;;;310.13;59.33;;;;;;;-1.08;58.12;100087.88;342593;28;2211;-69
2022/01/22 00:23:07;;;;;;;310.40;59.40;;;;;;;-1.07;58.47;100083.63;341338;28;1328;-70
2022/01/22 00:23:20;;;;;;;309.97;58.80;;;;;;;-1.07;58.04;100087.03;341525;29;940;-70
2022/01/22 00:23:31;;;;;;;310.88;57.85;;;;;;;-1.09;58.32;100086.16;341044;29;1559;-70
2022/01/22 00:23:48;;;;;;;313.40;57.92;;;;;;;-1.09;58.53;100082.72;340097;28;1948;-70
2022/01/22 00:24:01;;;;;;;313.15;58.50;;;;;;;-1.11;58.06;100085.28;340158;28;1062;-70
2022/01/22 00:24:13;;;;;;;310.23;58.60;;;;;;;-1.07;58.59;100087.03;342338;28;1851;-70
2022/01/22 00:24:24;;;;;;;311.88;58.53;;;;;;;-1.08;58.36;100085.31;342172;28;1858;-70
2022/01/22 00:24:38;;;;;;;312.95;58.92;;;;;;;-1.07;58.31;100084.47;342663;28;2124;-70
2022/01/22 00:24:54;;;;;;;311.08;58.72;;;;;;;-1.06;58.60;100077.63;342754;28;2122;-70
2022/01/22 00:25:08;;;;;;;309.90;58.47;;;;;;;-1.06;58.07;100086.22;341345;28;2038;-70
2022/01/22 00:25:19;;;;;;;310.80;58.90;;;;;;;-1.04;58.64;100083.66;342545;28;2045;-70
2022/01/22 00:25:30;;;;;;;310.08;58.63;;;;;;;-1.05;58.12;100082.81;342597;28;1000;-71
2022/01/22 00:25:40;;;;;;;309.55;58.33;;;;;;;-1.02;58.82;100084.53;342144;28;2125;-71
2022/01/22 00:25:51;;;;;;;309.17;57.83;;;;;;;-1.02;58.51;100080.28;341128;29;2113;-70
2022/01/22 00:26:01;;;;;;;309.77;58.15;;;;;;;-1.04;58.00;100081.97;341314;28;1810;-70
2022/01/22 00:26:11;;;;;;;310.97;58.73;;;;;;;-1.03;58.07;100088.81;342925;28;2117;-70
2022/01/22 00:26:22;;;;;;;314.27;59.33;;;;;;;-1.02;58.42;100089.69;343054;28;2272;-70
2022/01/22 00:26:33;;;;;;;315.38;60.25;;;;;;;-1.02;58.30;100089.69;339989;28;1410;-70
2022/01/22 00:26:43;;;;;;;313.90;60.07;;;;;;;-1.03;58.56;100083.69;341268;29;2141;-70
2022/01/22 00:26:54;;;;;;;311.20;59.20;;;;;;;-1.02;58.36;100093.13;345205;28;2163;-70
2022/01/22 00:27:06;;;;;;;310.60;58.70;;;;;;;-1.01;58.26;100083.69;345140;28;2131;-70
2022/01/22 00:27:16;;;;;;;312.38;59.30;;;;;;;-1.04;58.60;100088.78;340101;29;1082;-70
2022/01/22 00:27:27;;;;;;;313.53;60.00;;;;;;;-1.07;57.99;100087.03;339963;29;1813;-70
2022/01/22 00:27:43;;;;;;;311.58;59.17;;;;;;;-1.04;58.53;100089.66;338464;29;2024;-70
2022/01/22 00:27:53;;;;;;;311.38;58.65;;;;;;;-1.06;58.45;100083.63;340550;29;2168;-70
2022/01/22 00:28:04;;;;;;;311.70;58.57;;;;;;;-1.05;58.18;100087.06;339955;29;2054;-70
2022/01/22 00:28:14;;;;;;;311.10;58.17;;;;;;;-1.05;58.25;100087.94;338787;29;1249;-70
2022/01/22 00:28:25;;;;;;;308.70;58.10;;;;;;;-1.05;58.47;100079.38;340832;29;2190;-70
2022/01/22 00:28:35;;;;;;;309.23;57.83;;;;;;;-1.07;57.96;100083.63;338734;29;1515;-70
2022/01/22 00:28:45;;;;;;;310.58;57.95;;;;;;;-1.05;58.06;100082.81;342669;28;1072;-70
2022/01/22 00:28:56;;;;;;;312.10;58.00;;;;;;;-1.06;58.60;100078.50;341723;28;986;-70
2022/01/22 00:29:06;;;;;;;311.37;57.83;;;;;;;-1.09;58.52;100081.03;341564;28;2189;-70
2022/01/22 00:29:17;;;;;;;311.50;58.43;;;;;;;-1.07;58.68;100088.75;340063;29;1540;-70
2022/01/22 00:29:27;;;;;;;310.67;58.37;;;;;;;-1.05;58.54;100081.94;339941;29;1872;-71
2022/01/22 00:29:37;;;;;;;311.00;58.60;;;;;;;-1.04;58.36;100083.66;340425;29;2079;-70
2022/01/22 00:29:48;;;;;;;310.93;58.00;;;;;;;-1.06;58.68;100086.22;341401;29;984;-70
2022/01/22 00:29:58;;;;;;;314.35;58.50;;;;;;;-1.06;58.27;100088.78;342660;28;2188;-70
2022/01/22 00:30:10;;;;;;;314.53;58.47;;;;;;;-1.05;57.83;100085.38;340105;29;2044;-70
2022/01/22 00:30:22;;;;;;;313.55;57.80;;;;;;;-1.05;58.13;100090.50;342546;28;2115;-70
2022/01/22 00:30:33;;;;;;;313.75;58.03;;;;;;;-1.05;58.23;100087.94;342689;28;917;-70
2022/01/22 00:30:43;;;;;;;317.07;58.00;;;;;;;-1.03;58.42;100083.69;345315;28;1792;-70
2022/01/22 00:30:54;;;;;;;317.38;59.17;;;;;;;-1.04;58.37;100089.66;343869;28;1792;-70
2022/01/22 00:31:04;;;;;;;315.20;58.27;;;;;;;-1.03;58.00;100083.69;342747;28;1667;-70
2022/01/22 00:31:14;;;;;;;313.35;58.20;;;;;;;-1.03;58.40;100083.69;343890;28;1796;-70
2022/01/22 00:31:25;;;;;;;312.63;58.03;;;;;;;-1.01;58.04;100087.13;340032;29;1905;-70
2022/01/22 00:31:39;;;;;;;311.45;58.28;;;;;;;-0.99;58.18;100083.72;339901;29;1243;-71
2022/01/22 00:31:50;;;;;;;310.13;58.40;;;;;;;-0.99;57.69;100078.59;342751;28;1005;-71
2022/01/22 00:32:00;;;;;;;310.83;58.33;;;;;;;-1.01;58.27;100078.56;341342;28;1739;-71
2022/01/22 00:32:10;;;;;;;311.13;58.40;;;;;;;-1.02;58.26;100079.41;343905;28;2072;-71
2022/01/22 00:32:21;;;;;;;311.40;58.53;;;;;;;-1.01;58.15;100084.56;342745;28;1487;-70
2022/01/22 00:32:31;;;;;;;313.30;60.37;;;;;;;-1.01;58.22;100076.84;341239;28;2213;-70
2022/01/22 00:32:42;;;;;;;313.10;60.35;;;;;;;-1.02;57.87;100081.97;339755;28;2032;-70
2022/01/22 00:32:52;;;;;;;312.40;60.47;;;;;;;-1.03;57.86;100083.69;344011;28;1188;-70
2022/01/22 00:33:02;;;;;;;310.85;59.30;;;;;;;-1.02;57.88;100085.41;340111;29;856;-70
2022/01/22 00:33:15;;;;;;;309.77;58.60;;;;;;;-1.02;57.91;100076.84;341996;28;2103;-70
2022/01/22 00:33:26;;;;;;;308.25;57.13;;;;;;;-1.02;58.13;100076.84;343887;28;1985;-70
2022/01/22 00:33:36;;;;;;;308.48;57.42;;;;;;;-1.01;57.99;100087.13;342546;28;1226;-70
2022/01/22 00:33:47;;;;;;;310.47;58.53;;;;;;;-1.03;57.94;100073.41;341828;28;2165;-70
2022/01/22 00:33:57;;;;;;;311.75;59.30;;;;;;;-1.06;58.49;100077.63;342001;28;2019;-70
2022/01/22 00:34:07;;;;;;;311.97;59.37;;;;;;;-1.08;58.05;100074.19;342609;28;2227;-70
2022/01/22 00:34:18;;;;;;;312.50;59.58;;;;;;;-1.07;58.05;100087.03;341295;28;926;-70
2022/01/22 00:34:28;;;;;;;310.63;59.17;;;;;;;-1.07;58.14;100074.22;340771;29;1924;-70
2022/01/22 00:34:39;;;;;;;311.83;59.85;;;;;;;-1.08;58.13;100075.06;340060;29;2132;-70
2022/01/22 00:34:49;;;;;;;312.27;60.17;;;;;;;-1.08;58.22;100079.31;342742;28;1196;-70
2022/01/22 00:34:59;;;;;;;312.60;59.75;;;;;;;-1.08;58.23;100080.19;342241;28;1615;-70
2022/01/22 00:35:10;;;;;;;309.70;58.57;;;;;;;-1.08;58.27;100076.75;341184;28;1895;-70
2022/01/22 00:35:21;;;;;;;309.52;58.55;;;;;;;-1.05;58.00;100082.81;342700;28;936;-70
2022/01/22 00:35:32;;;;;;;309.40;58.70;;;;;;;-1.03;58.45;100078.53;341177;29;1937;-71
2022/01/22 00:35:43;;;;;;;311.98;59.30;;;;;;;-1.00;57.87;100082.84;339945;28;2078;-70
2022/01/22 00:35:54;;;;;;;313.60;59.58;;;;;;;-1.01;58.04;100079.44;338706;29;2066;-70
2022/01/22 00:36:04;;;;;;;313.50;59.30;;;;;;;-1.03;57.55;100078.53;343233;28;1731;-70
2022/01/22 00:36:14;;;;;;;310.40;58.17;;;;;;;-1.04;58.15;100076.81;342141;28;1526;-70
2022/01/22 00:36:25;;;;;;;309.95;57.05;;;;;;;-1.07;57.72;100076.78;340598;28;1217;-70
2022/01/22 00:36:36;;;;;;;310.33;57.93;;;;;;;-1.05;57.78;100075.09;340022;29;1280;-70
2022/01/22 00:36:46;;;;;;;311.02;58.40;;;;;;;-1.08;58.31;100079.31;343465;28;2135;-70
2022/01/22 00:36:57;;;;;;;310.50;58.83;;;;;;;-1.08;58.01;100080.19;340898;29;2002;-70
2022/01/22 00:37:07;;;;;;;310.30;58.28;;;;;;;-1.09;58.04;100080.16;341255;28;1225;-70
2022/01/22 00:37:18;;;;;;;311.17;59.10;;;;;;;-1.09;57.53;100073.31;343900;28;2120;-70
2022/01/22 00:37:28;;;;;;;311.70;59.47;;;;;;;-1.11;58.04;100075.00;342576;28;2230;-70
2022/01/22 00:37:41;;;;;;;310.63;58.90;;;;;;;-1.10;57.80;100074.16;341341;28;1936;-70
2022/01/22 00:37:51;;;;;;;310.00;58.42;;;;;;;-1.08;58.00;100074.19;340092;29;866;-70
2022/01/22 00:38:02;;;;;;;311.95;58.33;;;;;;;-1.06;58.08;100082.78;341252;28;2207;-70
2022/01/22 00:38:14;;;;;;;312.10;58.27;;;;;;;-1.08;58.13;100069.06;340522;28;2200;-70
2022/01/22 00:38:24;;;;;;;312.52;58.36;;;;;;;-1.08;57.77;100074.19;341158;28;1317;-70
2022/01/22 00:38:35;;;;;;;310.83;59.07;;;;;;;-1.08;57.90;100069.91;342502;28;1315;-70
2022/01/22 00:38:45;;;;;;;313.65;59.58;;;;;;;-1.08;58.13;100080.19;339446;29;1773;-70
2022/01/22 00:38:56;;;;;;;313.63;59.30;;;;;;;-1.08;58.06;100082.75;342408;28;1998;-70
2022/01/22 00:39:06;;;;;;;313.43;58.77;;;;;;;-1.07;57.68;100081.91;341425;29;937;-70
2022/01/22 00:39:17;;;;;;;310.52;58.55;;;;;;;-1.08;58.17;100077.63;341264;28;1550;-70
2022/01/22 00:39:27;;;;;;;309.33;58.77;;;;;;;-1.08;57.95;100082.75;342022;28;2200;-70
2022/01/22 00:39:37;;;;;;;309.03;59.33;;;;;;;-1.10;58.23;100079.31;340060;29;884;-70
2022/01/22 00:39:48;;;;;;;310.03;59.97;;;;;;;-1.10;57.76;100074.16;341304;28;2062;-70
2022/01/22 00:39:58;;;;;;;308.90;59.50;;;;;;;-1.08;58.13;100079.31;346036;28;1727;-70
2022/01/22 00:40:10;;;;;;;310.83;59.63;;;;;;;-1.11;58.02;100069.88;342643;28;1959;-70
2022/01/22 00:40:21;;;;;;;310.63;58.63;;;;;;;-1.11;58.23;100075.00;341349;29;1489;-70
2022/01/22 00:40:31;;;;;;;312.80;58.58;;;;;;;-1.12;58.10;100080.97;339758;28;1433;-70
2022/01/22 00:40:49;;;;;;;311.83;58.80;;;;;;;-1.11;58.17;100075.00;341246;29;1980;-70
2022/01/22 00:40:59;;;;;;;312.52;60.80;;;;;;;-1.12;57.84;100072.41;341084;28;2122;-71
2022/01/22 00:41:10;;;;;;;310.33;60.00;;;;;;;-1.14;57.81;100074.97;338621;29;2109;-71
2022/01/22 00:41:21;;;;;;;309.17;59.75;;;;;;;-1.15;58.39;100070.66;338730;29;927;-71
2022/01/22 00:41:32;;;;;;;307.50;58.33;;;;;;;-1.15;58.46;100073.25;339517;29;2099;-70
2022/01/22 00:41:42;;;;;;;308.55;58.13;;;;;;;-1.16;58.34;100081.78;339944;29;1863;-70
2022/01/22 00:41:52;;;;;;;310.43;58.53;;;;;;;-1.16;58.26;100076.66;340001;29;1185;-70
2022/01/22 00:42:08;;;;;;;311.23;59.53;;;;;;;-1.15;57.78;100077.50;341273;28;1359;-70
2022/01/22 00:42:20;;;;;;;310.25;59.17;;;;;;;-1.16;58.47;100076.66;342664;28;1426;-70
2022/01/22 00:42:33;;;;;;;311.02;59.35;;;;;;;-1.15;58.06;100078.38;343860;28;2306;-70
2022/01/22 00:42:44;;;;;;;312.74;59.70;;;;;;;-1.14;58.12;100074.97;343435;28;1774;-70
2022/01/22 00:42:54;;;;;;;312.70;59.17;;;;;;;-1.14;57.95;100077.53;344046;28;1379;-70
2022/01/22 00:43:05;;;;;;;308.80;58.70;;;;;;;-1.17;57.97;100080.06;340016;28;1387;-70
2022/01/22 00:43:15;;;;;;;308.63;58.47;;;;;;;-1.21;58.20;100073.16;341170;29;2026;-70
2022/01/22 00:43:26;;;;;;;308.80;58.63;;;;;;;-1.23;58.14;100082.53;341200;29;2285;-70
2022/01/22 00:43:36;;;;;;;308.92;57.28;;;;;;;-1.23;58.55;100074.84;342622;28;1368;-71
2022/01/22 00:43:48;;;;;;;307.93;57.60;;;;;;;-1.19;58.12;100081.75;342475;28;2325;-71
2022/01/22 00:43:58;;;;;;;310.88;58.45;;;;;;;-1.17;58.22;100080.06;341117;28;1914;-70
2022/01/22 00:44:09;;;;;;;312.48;58.75;;;;;;;-1.19;58.55;100081.75;342431;28;1898;-70
2022/01/22 00:44:19;;;;;;;312.60;58.57;;;;;;;-1.19;58.03;100080.88;343920;28;1827;-70
2022/01/22 00:44:29;;;;;;;310.97;58.93;;;;;;;-1.19;58.17;100076.59;342612;28;1494;-70
2022/01/22 00:44:40;;;;;;;311.77;59.72;;;;;;;-1.20;58.16;100079.16;338466;29;1798;-70
2022/01/22 00:44:51;;;;;;;310.85;59.53;;;;;;;-1.19;58.20;100076.59;341442;29;925;-70
2022/01/22 00:45:02;;;;;;;308.80;58.20;;;;;;;-1.22;58.01;100080.84;343651;28;1822;-70
2022/01/22 00:45:12;;;;;;;306.83;57.63;;;;;;;-1.25;58.23;100076.53;342522;28;2093;-70
2022/01/22 00:45:22;;;;;;;307.95;58.03;;;;;;;-1.26;58.25;100079.94;341310;29;1039;-70
2022/01/22 00:45:33;;;;;;;308.90;58.13;;;;;;;-1.26;57.74;100074.78;342534;28;1630;-70
2022/01/22 00:45:43;;;;;;;309.25;58.13;;;;;;;-1.24;58.48;100067.97;340649;28;1806;-70
2022/01/22 00:45:54;;;;;;;308.42;58.17;;;;;;;-1.26;58.26;100064.53;341221;28;2124;-70
2022/01/22 00:46:04;;;;;;;308.63;58.73;;;;;;;-1.25;58.37;100081.66;339868;29;1685;-70
2022/01/22 00:46:15;;;;;;;309.83;58.53;;;;;;;-1.26;58.29;100072.22;340782;29;2139;-70
2022/01/22 00:46:25;;;;;;;311.63;58.37;;;;;;;-1.25;58.24;100070.53;342577;28;1334;-70
2022/01/22 00:46:36;;;;;;;311.67;58.03;;;;;;;-1.28;58.23;100076.47;340095;29;865;-70
2022/01/22 00:46:46;;;;;;;311.27;57.93;;;;;;;-1.29;57.92;100069.63;339873;29;1814;-70
2022/01/22 00:47:00;;;;;;;310.08;58.35;;;;;;;-1.25;58.25;100076.53;341334;29;1234;-70
2022/01/22 00:47:11;;;;;;;312.40;59.90;;;;;;;-1.25;57.99;100073.94;343896;28;1966;-70
2022/01/22 00:47:21;;;;;;;312.30;61.13;;;;;;;-1.23;57.98;100079.97;342678;28;899;-70
2022/01/22 00:47:31;;;;;;;312.33;61.33;;;;;;;-1.22;57.97;100080.84;342314;28;1254;-70
2022/01/22 00:47:42;;;;;;;311.40;60.90;;;;;;;-1.23;58.25;100077.41;339872;28;1496;-70
2022/01/22 00:47:52;;;;;;;311.27;59.80;;;;;;;-1.21;57.90;100078.28;342730;28;1011;-70
2022/01/22 00:48:03;;;;;;;312.50;60.50;;;;;;;-1.23;58.13;100074.84;342469;28;2102;-70
2022/01/22 00:48:13;;;;;;;313.60;60.95;;;;;;;-1.23;57.98;100074.84;341314;28;2033;-70
2022/01/22 00:48:24;;;;;;;313.15;60.70;;;;;;;-1.24;58.50;100078.25;343846;28;2078;-70
2022/01/22 00:48:34;;;;;;;311.27;59.50;;;;;;;-1.24;58.14;100070.53;340025;29;960;-70
2022/01/22 00:48:45;;;;;;;310.17;59.03;;;;;;;-1.23;58.09;100085.09;340673;29;1018;-70
2022/01/22 00:48:56;;;;;;;309.83;59.35;;;;;;;-1.23;57.89;100085.09;342601;28;1661;-70
2022/01/22 00:49:06;;;;;;;310.43;59.70;;;;;;;-1.23;58.17;100079.97;344080;28;994;-71
2022/01/22 00:49:16;;;;;;;310.60;58.83;;;;;;;-1.22;57.78;100076.56;342429;28;2102;-70
2022/01/22 00:49:27;;;;;;;309.90;58.07;;;;;;;-1.22;58.33;100081.69;340889;29;1304;-70
2022/01/22 00:49:37;;;;;;;309.92;58.15;;;;;;;-1.22;58.00;100081.69;341189;29;1362;-70
2022/01/22 00:49:47;;;;;;;311.87;58.83;;;;;;;-1.22;58.36;100081.69;341301;29;2318;-70
2022/01/22 00:49:58;;;;;;;313.35;59.10;;;;;;;-1.21;57.74;100074.84;341293;29;2123;-70
2022/01/22 00:50:11;;;;;;;313.57;58.93;;;;;;;-1.20;58.18;100076.59;342508;28;2246;-70
2022/01/22 00:50:23;;;;;;;312.10;59.50;;;;;;;-1.20;58.06;100084.28;341390;29;1007;-70
2022/01/22 00:50:33;;;;;;;311.80;59.25;;;;;;;-1.19;57.87;100081.75;341195;29;982;-70
2022/01/22 00:50:44;;;;;;;311.63;59.25;;;;;;;-1.18;57.53;100078.34;345129;28;2168;-70
2022/01/22 00:50:56;;;;;;;311.27;58.63;;;;;;;-1.17;58.02;100079.19;341128;29;2388;-70
2022/01/22 00:51:06;;;;;;;309.75;57.63;;;;;;;-1.16;57.79;100076.66;341353;29;900;-70
2022/01/22 00:51:17;;;;;;;310.37;58.00;;;;;;;-1.16;58.10;100080.91;343545;28;2152;-70
2022/01/22 00:51:27;;;;;;;308.48;57.65;;;;;;;-1.16;57.53;100080.91;340692;29;2022;-70
2022/01/22 00:51:38;;;;;;;309.53;58.33;;;;;;;-1.15;57.26;100082.66;341212;29;896;-70
2022/01/22 00:51:48;;;;;;;310.00;57.83;;;;;;;-1.13;57.42;100075.81;339907;29;2291;-70
2022/01/22 00:51:59;;;;;;;310.40;58.37;;;;;;;-1.14;57.29;100080.09;340673;29;2006;-70
2022/01/22 00:52:09;;;;;;;310.10;58.20;;;;;;;-1.15;57.93;100087.78;342508;28;2008;-70
2022/01/22 00:52:20;;;;;;;309.45;58.50;;;;;;;-1.16;57.69;100081.78;342611;28;1184;-70
2022/01/22 00:52:30;;;;;;;311.20;58.70;;;;;;;-1.15;57.22;100083.50;341121;28;1569;-70
2022/01/22 00:52:41;;;;;;;312.00;58.95;;;;;;;-1.16;56.99;100081.78;341598;28;1811;-70